Latest Weather Observations for Sydney - Observatory Hill

IDN60801

Issued at 10:05 pm EDT Monday 20 October 2014 (issued every 30 minutes, with the page automatically refreshed every 10 minutes)

About weather observations | Map of weather stations | Latest weather observations for NSW | Other Formats
Station Details ID: 066062 Name: SYDNEY (OBSERVATORY HILL) Lat: -33.86 Lon: 151.21 Height: 39.0 m
Data from the previous 72 hours. | See also: Recent months at Sydney - Observatory Hill

* Apparent temperature (App Temp) for Sydney - Observatory Hill is calculated using temperature observations collected at Sydney - Observatory Hill and wind observations collected at Fort Denison, as wind observations are not currently provided for Sydney - Observatory Hill.

Date/Time
EDT
Temp
°C
App
Temp
°C
Dew
Point
Rel
Hum
%
Delta-T
°C
Wind Press
QNH
hPa
Press
MSL
hPa
Rain
since 9 am
mm
Dir
 
Spd
km/h
Gust
km/h
Spd
kts
Gust
kts
20/10:00pm 16.9 13.2 10.1 64 3.6 ESE 20 - 11 - 1031.9 1031.8 0.0
20/09:30pm 16.7 14.6 9.9 64 3.5 SE 11 - 6 - 1031.8 1031.7 0.0
20/09:00pm 16.9 14.8 11.0 68 3.1 ESE 13 - 7 - 1031.7 1031.6 0.0
20/08:30pm 16.7 13.1 10.5 67 3.3 SSE 20 - 11 - 1031.4 1031.3 0.0
20/08:00pm 16.9 14.5 10.1 64 3.6 SSE 13 - 7 - 1030.9 1030.8 0.0
20/07:30pm 17.2 13.3 9.4 60 4.1 SSE 20 - 11 - 1030.6 1030.5 0.0
20/07:00pm 17.2 13.5 9.4 60 4.0 SSE 19 - 10 - 1030.4 1030.3 0.0
20/06:30pm 17.4 13.3 10.1 62 3.9 SSE 22 - 12 - 1030.2 1030.1 0.0
20/06:00pm 17.5 13.7 9.9 61 4.0 SSE 20 - 11 - 1030.0 1029.9 0.0
20/05:30pm 17.6 14.0 10.5 63 3.8 SSE 20 - 11 - 1029.9 1029.8 0.0
20/05:00pm 17.5 13.5 10.6 64 3.7 SSE 22 - 12 - 1029.8 1029.7 0.0
20/04:30pm 17.0 12.0 10.8 67 3.3 SSE 28 - 15 - 1029.9 1029.8 0.0
20/04:00pm 17.4 14.0 12.5 73 2.7 SSE 22 - 12 - 1029.8 1029.7 0.0
20/03:30pm 17.6 13.9 11.6 68 3.3 SSE 22 - 12 - 1029.8 1029.7 0.0
20/03:00pm 17.0 13.5 12.3 74 2.6 S 22 - 12 - 1029.9 1029.8 0.0
20/02:30pm 17.3 13.6 12.8 75 2.5 SSE 24 - 13 - 1029.9 1029.8 0.0
20/02:00pm 18.0 14.0 13.1 73 2.7 S 26 - 14 - 1030.2 1030.1 0.0
20/01:30pm 19.2 15.3 12.2 64 3.9 SSE 24 - 13 - 1030.0 1029.9 0.0
20/01:00pm 20.3 16.6 12.8 62 4.2 S 24 - 13 - 1030.1 1030.0 0.0
20/12:30pm 18.7 14.8 12.0 65 3.7 S 24 - 13 - 1030.3 1030.2 0.0
20/12:00pm 19.7 14.6 12.0 61 4.3 S 30 - 16 - 1030.3 1030.2 0.0
20/11:30am 18.9 13.0 10.5 58 4.5 S 32 - 17 - 1030.4 1030.3 0.0
20/11:00am 19.7 12.7 11.2 58 4.6 S 39 - 21 - 1030.4 1030.3 0.0
20/10:30am 18.6 12.7 10.4 59 4.4 S 32 - 17 - 1030.4 1030.3 0.0
20/10:00am 18.6 12.3 10.9 61 4.1 S 35 - 19 - 1030.1 1030.0 0.0
20/09:30am 18.6 12.3 10.9 61 4.2 S 35 - 19 - 1029.5 1029.4 0.0
20/09:00am 19.8 14.0 11.6 59 4.5 S 33 - 18 - 1028.8 1028.7 0.0
20/08:30am 18.8 12.8 10.9 60 4.3 S 33 - 18 - 1028.0 1027.9 0.0
20/08:00am 18.9 12.0 11.7 63 3.9 S 39 - 21 - 1027.1 1027.0 0.0
20/07:30am 18.2 11.9 12.2 68 3.3 S 37 - 20 - 1026.2 1026.1 0.0
20/07:00am 17.8 11.1 12.3 70 3.0 S 39 - 21 - 1025.6 1025.5 0.0
20/06:30am 18.0 11.0 13.7 76 2.4 S 43 - 23 - 1024.8 1024.7 0.0
20/06:00am 18.2 12.7 14.7 80 2.0 SSW 37 - 20 - 1023.9 1023.8 0.0
20/05:30am 16.7 15.9 13.0 79 2.1 SW 9 - 5 - 1022.6 1022.5 0.0
20/05:00am 16.0 15.6 12.9 82 1.7 WNW 7 - 4 - 1021.2 1021.1 0.0
20/04:30am 15.9 15.5 12.5 80 1.9 WNW 6 - 3 - 1021.2 1021.1 0.0
20/04:00am 16.0 15.5 12.7 81 1.8 WNW 7 - 4 - 1021.2 1021.1 0.0
20/03:30am 16.5 16.7 13.2 81 1.8 NW 4 - 2 - 1021.5 1021.4 0.0
20/03:00am 17.3 18.3 13.2 77 2.3 CALM 0 - 0 - 1021.7 1021.6 0.0
20/02:30am 17.2 17.2 12.3 73 2.7 NNE 4 - 2 - 1021.6 1021.5 0.0
20/02:00am 17.1 17.1 12.4 74 2.6 WNW 4 - 2 - 1022.1 1022.0 0.0
20/01:30am 17.1 17.0 12.2 73 2.7 N 4 - 2 - 1022.3 1022.2 0.0
20/01:00am 17.4 16.5 12.5 73 2.7 W 9 - 5 - 1022.6 1022.5 0.0
20/12:30am 17.8 17.4 12.3 70 3.0 WNW 6 - 3 - 1023.0 1022.9 0.0
20/12:00am 18.6 18.9 12.1 66 3.6 NW 2 - 1 - 1023.0 1022.9 0.0
 
Date/Time
EDT
Temp
°C
App
Temp
°C
Dew
Point
Rel
Hum
%
Delta-T
°C
Wind Press
QNH
hPa
Press
MSL
hPa
Rain
since 9 am
mm
Dir
 
Spd
km/h
Gust
km/h
Spd
kts
Gust
kts
19/11:30pm 19.1 18.7 12.4 65 3.7 NE 6 - 3 - 1023.2 1023.1 0.0
19/11:00pm 19.3 18.7 12.3 64 3.9 NE 7 - 4 - 1023.0 1022.9 0.0
19/10:30pm 19.3 18.7 12.3 64 3.9 E 7 - 4 - 1023.1 1023.0 0.0
19/10:00pm 19.3 19.0 12.6 65 3.7 ENE 6 - 3 - 1023.3 1023.2 0.0
19/09:30pm 19.3 18.7 12.3 64 3.9 NE 7 - 4 - 1023.3 1023.2 0.0
19/09:00pm 19.4 17.2 12.2 63 4.0 N 15 - 8 - 1023.2 1023.1 0.0
19/08:30pm 19.6 14.7 12.4 63 4.0 NNE 30 - 16 - 1022.8 1022.7 0.0
19/08:00pm 19.7 15.2 12.7 64 3.9 NNE 28 - 15 - 1022.5 1022.4 0.0
19/07:30pm 19.7 14.9 12.9 65 3.8 NNE 30 - 16 - 1022.2 1022.1 0.0
19/07:00pm 20.0 15.9 12.7 63 4.1 NNE 26 - 14 - 1022.1 1022.0 0.0
19/06:30pm 20.6 15.8 11.8 57 4.9 NNE 28 - 15 - 1021.9 1021.8 0.0
19/06:00pm 21.1 16.8 10.9 52 5.6 NNE 24 - 13 - 1021.8 1021.7 0.0
19/05:30pm 21.4 17.4 10.6 50 5.9 NNE 22 - 12 - 1021.9 1021.8 0.0
19/05:00pm 22.3 18.0 10.8 48 6.3 NNE 24 - 13 - 1021.9 1021.8 0.0
19/04:30pm 22.6 19.0 10.7 47 6.6 NE 20 - 11 - 1022.0 1021.9 0.0
19/04:00pm 22.8 19.7 10.3 45 6.8 NE 17 - 9 - 1022.1 1022.0 0.0
19/03:30pm 23.2 19.8 11.3 47 6.7 NNE 20 - 11 - 1022.4 1022.3 0.0
19/03:00pm 23.1 20.1 11.8 49 6.4 NE 19 - 10 - 1022.7 1022.6 0.0
19/02:30pm 23.2 20.1 12.2 50 6.3 NE 20 - 11 - 1023.3 1023.2 0.0
19/02:00pm 22.7 19.1 11.7 49 6.2 NE 22 - 12 - 1023.5 1023.4 0.0
19/01:30pm 22.8 19.6 11.8 50 6.2 NE 20 - 11 - 1024.0 1023.9 0.0
19/01:00pm 22.6 20.0 12.0 51 6.0 NE 17 - 9 - 1024.5 1024.4 0.0
19/12:30pm 22.3 19.7 12.0 52 5.8 NE 17 - 9 - 1024.8 1024.7 0.0
19/12:00pm 23.1 20.7 11.5 48 6.5 NE 15 - 8 - 1025.2 1025.1 0.0
19/11:30am 23.3 20.7 12.0 49 6.4 E 17 - 9 - 1025.7 1025.6 0.0
19/11:00am 22.6 19.6 9.4 43 7.1 E 15 - 8 - 1026.3 1026.2 0.0
19/10:30am 22.0 20.7 9.2 44 6.9 NNW 6 - 3 - 1027.0 1026.9 0.0
19/10:00am 20.9 20.4 9.2 47 6.2 ESE 2 - 1 - 1027.5 1027.4 0.0
19/09:30am 19.8 19.1 10.0 53 5.3 WSW 4 - 2 - 1027.7 1027.6 0.0
19/09:00am 18.6 16.9 9.9 57 4.6 W 9 - 5 - 1027.6 1027.5 0.0
19/08:30am 17.1 14.9 9.3 60 4.1 W 11 - 6 - 1027.6 1027.5 0.0
19/08:00am 16.4 14.6 9.6 64 3.5 NW 9 - 5 - 1027.7 1027.6 0.0
19/07:30am 14.7 13.2 9.3 70 2.8 NNW 7 - 4 - 1027.5 1027.4 0.0
19/07:00am 13.7 12.5 9.7 77 2.0 NW 6 - 3 - 1027.2 1027.1 0.0
19/06:30am 12.7 11.3 9.7 82 1.5 NNW 7 - 4 - 1027.1 1027.0 0.0
19/06:00am 12.6 11.4 9.4 81 1.6 NW 6 - 3 - 1027.0 1026.9 0.0
19/05:30am 12.7 12.2 9.5 81 1.6 W 2 - 1 - 1026.9 1026.8 0.0
19/05:00am 12.7 11.5 9.7 82 1.5 WNW 6 - 3 - 1026.9 1026.8 0.0
19/04:30am 12.9 11.5 9.7 81 1.6 WNW 7 - 4 - 1027.0 1026.9 0.0
19/04:00am 12.9 11.2 9.7 81 1.6 NW 9 - 5 - 1027.1 1027.0 0.0
19/03:30am 13.1 11.0 9.9 81 1.6 WNW 11 - 6 - 1027.2 1027.1 0.0
19/03:00am 13.4 12.1 10.0 80 1.7 NW 7 - 4 - 1027.2 1027.1 0.0
19/02:30am 13.5 12.4 9.9 79 1.9 NW 6 - 3 - 1027.4 1027.3 0.0
19/02:00am 13.5 11.9 10.1 80 1.7 NW 9 - 5 - 1027.5 1027.4 0.0
19/01:30am 13.6 12.5 10.0 79 1.9 NW 6 - 3 - 1028.0 1027.9 0.0
19/01:00am 14.2 12.5 10.0 76 2.2 WNW 9 - 5 - 1028.6 1028.5 0.0
19/12:30am 14.2 12.8 9.4 73 2.5 WNW 7 - 4 - 1028.5 1028.4 0.0
19/12:00am 14.6 13.3 9.2 70 2.7 WNW 6 - 3 - 1028.5 1028.4 0.0
 
Date/Time
EDT
Temp
°C
App
Temp
°C
Dew
Point
Rel
Hum
%
Delta-T
°C
Wind Press
QNH
hPa
Press
MSL
hPa
Rain
since 9 am
mm
Dir
 
Spd
km/h
Gust
km/h
Spd
kts
Gust
kts
18/11:30pm 15.2 13.9 9.3 68 3.0 NW 6 - 3 - 1028.5 1028.4 0.0
18/11:00pm 16.3 15.1 9.5 64 3.5 NW 6 - 3 - 1028.6 1028.5 0.0
18/10:30pm 16.9 15.6 9.3 61 4.0 N 6 - 3 - 1028.8 1028.7 0.0
18/10:00pm 17.0 15.1 9.2 60 4.0 NNE 9 - 5 - 1028.8 1028.7 0.0
18/09:30pm 17.2 14.6 9.4 60 4.1 NE 13 - 7 - 1028.7 1028.6 0.0
18/09:00pm 17.3 15.0 9.0 58 4.3 NE 11 - 6 - 1028.4 1028.3 0.0
18/08:30pm 17.3 14.1 8.4 56 4.6 ENE 15 - 8 - 1028.1 1028.0 0.0
18/08:00pm 17.4 13.9 8.8 57 4.4 ENE 17 - 9 - 1027.8 1027.7 0.0
18/07:30pm 17.6 14.1 8.7 56 4.6 ENE 17 - 9 - 1027.7 1027.6 0.0
18/07:00pm 17.8 14.1 8.1 53 4.9 ENE 17 - 9 - 1027.2 1027.1 0.0
18/06:30pm 18.0 14.2 7.7 51 5.2 ENE 17 - 9 - 1027.0 1026.9 0.0
18/06:00pm 18.3 13.9 7.4 49 5.5 E 20 - 11 - 1026.8 1026.7 0.0
18/05:30pm 18.5 13.9 6.7 46 5.9 ENE 20 - 11 - 1026.8 1026.7 0.0
18/05:00pm 18.7 14.2 6.2 44 6.2 E 19 - 10 - 1026.9 1026.8 0.0
18/04:30pm 19.5 15.2 6.9 44 6.4 ENE 19 - 10 - 1026.8 1026.7 0.0
18/04:00pm 19.2 14.9 7.0 45 6.1 E 19 - 10 - 1026.9 1026.8 0.0
18/03:30pm 19.4 15.4 6.8 44 6.3 E 17 - 9 - 1027.1 1027.0 0.0
18/03:00pm 19.6 15.8 7.7 46 6.1 E 17 - 9 - 1027.5 1027.4 0.0
18/02:30pm 19.5 15.8 7.9 47 6.0 E 17 - 9 - 1027.7 1027.6 0.0
18/02:00pm 19.3 15.2 7.7 47 5.9 E 19 - 10 - 1028.1 1028.0 0.0
18/01:30pm 19.3 16.1 8.3 49 5.7 E 15 - 8 - 1028.3 1028.2 0.0
18/01:00pm 19.0 15.9 7.1 46 6.0 E 13 - 7 - 1028.6 1028.5 0.0
18/12:30pm 18.9 16.6 7.4 47 5.8 E 9 - 5 - 1029.1 1029.0 0.0
18/12:00pm 18.1 16.5 7.8 51 5.2 ESE 6 - 3 - 1029.7 1029.6 0.0
18/11:30am 17.9 17.1 8.2 53 5.0 E 2 - 1 - 1029.9 1029.8 0.0
18/11:00am 17.9 16.7 8.2 53 4.9 N 4 - 2 - 1030.1 1030.0 0.0
18/10:30am 18.3 16.5 9.6 57 4.6 WNW 9 - 5 - 1030.2 1030.1 0.0
18/10:00am 16.7 14.3 8.7 59 4.1 WNW 11 - 6 - 1030.2 1030.1 0.0
18/09:30am 16.3 13.2 9.0 62 3.8 W 15 - 8 - 1030.2 1030.1 0.0
18/09:00am 15.3 12.2 9.0 66 3.2 W 15 - 8 - 1029.9 1029.8 0.0
18/08:30am 14.7 12.0 8.9 68 3.0 WNW 13 - 7 - 1029.8 1029.7 0.0
18/08:00am 13.6 10.8 8.7 72 2.4 W 13 - 7 - 1029.6 1029.5 0.0
18/07:30am 13.0 9.4 8.3 73 2.3 W 17 - 9 - 1029.4 1029.3 0.0
18/07:00am 12.9 9.4 8.8 76 2.0 W 17 - 9 - 1029.1 1029.0 0.0
18/06:30am 12.9 9.8 8.8 76 2.1 W 15 - 8 - 1028.7 1028.6 0.0
18/06:00am 13.1 10.1 9.2 77 2.0 W 15 - 8 - 1028.3 1028.2 0.0
18/05:30am 13.1 10.3 8.6 74 2.3 W 13 - 7 - 1027.9 1027.8 0.0
18/05:00am 12.9 9.3 8.4 74 2.2 W 17 - 9 - 1027.9 1027.8 0.0
18/04:30am 13.1 10.8 9.0 76 2.1 WNW 11 - 6 - 1027.6 1027.5 0.0
18/04:00am 13.3 10.1 8.6 73 2.3 W 15 - 8 - 1027.7 1027.6 0.0
18/03:30am 13.4 10.5 8.3 71 2.5 W 13 - 7 - 1027.8 1027.7 0.0
18/03:00am 13.4 10.5 8.3 71 2.5 WNW 13 - 7 - 1027.9 1027.8 0.0
18/02:30am 13.6 10.7 8.0 69 2.8 WNW 13 - 7 - 1027.9 1027.8 0.0
18/02:00am 13.7 10.0 7.9 68 2.9 W 17 - 9 - 1028.1 1028.0 0.0
18/01:30am 14.1 10.9 8.3 68 2.9 WNW 15 - 8 - 1028.2 1028.1 0.0
18/01:00am 14.5 12.0 8.2 66 3.1 WNW 11 - 6 - 1028.3 1028.2 0.0
18/12:30am 14.8 13.1 8.3 65 3.3 S 7 - 4 - 1028.6 1028.5 0.0
18/12:00am 14.9 13.1 7.2 60 3.8 SW 6 - 3 - 1028.4 1028.3 0.0
 
Date/Time
EDT
Temp
°C
App
Temp
°C
Dew
Point
Rel
Hum
%
Delta-T
°C
Wind Press
QNH
hPa
Press
MSL
hPa
Rain
since 9 am
mm
Dir
 
Spd
km/h
Gust
km/h
Spd
kts
Gust
kts
17/11:30pm 15.1 13.1 7.2 59 3.9 S 7 - 4 - 1028.4 1028.3 0.0
17/11:00pm 15.2 12.3 6.7 57 4.1 SSE 11 - 6 - 1028.3 1028.2 0.0
17/10:30pm 15.6 12.3 6.6 55 4.4 SSE 13 - 7 - 1028.2 1028.1 0.0

Other Formats:

Comma delimited format used in spreadsheet applications
http://www.bom.gov.au/fwo/IDN60801/IDN60801.94768.axf

JavaScript Object Notation format (JSON) in row-major order
http://www.bom.gov.au/fwo/IDN60801/IDN60801.94768.json